sensor_id;sensor_type;location;lat;lon;timestamp;P1;durP1;ratioP1;P2;durP2;ratioP2
81160;SDS011;70637;48.514;14.500;2023-07-13T00:02:06;7.40;;;4.10;;
81160;SDS011;70637;48.514;14.500;2023-07-13T00:04:32;9.45;;;4.68;;
81160;SDS011;70637;48.514;14.500;2023-07-13T00:06:58;5.10;;;4.00;;
81160;SDS011;70637;48.514;14.500;2023-07-13T00:09:24;6.45;;;4.50;;
81160;SDS011;70637;48.514;14.500;2023-07-13T00:11:51;6.78;;;4.38;;
81160;SDS011;70637;48.514;14.500;2023-07-13T00:14:19;6.43;;;4.22;;
81160;SDS011;70637;48.514;14.500;2023-07-13T00:16:45;7.15;;;4.30;;
81160;SDS011;70637;48.514;14.500;2023-07-13T00:19:11;10.10;;;4.35;;
81160;SDS011;70637;48.514;14.500;2023-07-13T00:21:38;7.95;;;3.58;;
81160;SDS011;70637;48.514;14.500;2023-07-13T00:24:05;8.02;;;4.47;;
81160;SDS011;70637;48.514;14.500;2023-07-13T00:26:32;6.45;;;3.95;;
81160;SDS011;70637;48.514;14.500;2023-07-13T00:28:58;7.20;;;4.20;;
81160;SDS011;70637;48.514;14.500;2023-07-13T00:31:24;7.10;;;4.10;;
81160;SDS011;70637;48.514;14.500;2023-07-13T00:33:50;6.57;;;4.28;;
81160;SDS011;70637;48.514;14.500;2023-07-13T00:36:16;6.25;;;3.75;;
81160;SDS011;70637;48.514;14.500;2023-07-13T00:38:43;7.90;;;4.50;;
81160;SDS011;70637;48.514;14.500;2023-07-13T00:41:09;8.82;;;4.78;;
81160;SDS011;70637;48.514;14.500;2023-07-13T00:43:35;8.43;;;4.25;;
81160;SDS011;70637;48.514;14.500;2023-07-13T00:48:27;8.32;;;4.70;;
81160;SDS011;70637;48.514;14.500;2023-07-13T00:50:56;8.18;;;4.18;;
81160;SDS011;70637;48.514;14.500;2023-07-13T00:53:26;9.95;;;4.00;;
81160;SDS011;70637;48.514;14.500;2023-07-13T00:55:53;8.45;;;3.95;;
81160;SDS011;70637;48.514;14.500;2023-07-13T00:58:21;7.28;;;4.18;;
81160;SDS011;70637;48.514;14.500;2023-07-13T01:00:48;7.35;;;4.10;;
81160;SDS011;70637;48.514;14.500;2023-07-13T01:03:15;8.25;;;4.63;;
81160;SDS011;70637;48.514;14.500;2023-07-13T01:05:41;10.40;;;4.63;;
81160;SDS011;70637;48.514;14.500;2023-07-13T01:08:11;7.82;;;5.43;;
81160;SDS011;70637;48.514;14.500;2023-07-13T01:10:37;10.90;;;7.18;;
81160;SDS011;70637;48.514;14.500;2023-07-13T01:13:06;9.70;;;7.15;;
81160;SDS011;70637;48.514;14.500;2023-07-13T01:15:38;14.82;;;10.10;;
81160;SDS011;70637;48.514;14.500;2023-07-13T01:18:16;22.00;;;13.52;;
81160;SDS011;70637;48.514;14.500;2023-07-13T01:20:56;17.92;;;13.82;;
81160;SDS011;70637;48.514;14.500;2023-07-13T01:23:26;18.08;;;13.57;;
81160;SDS011;70637;48.514;14.500;2023-07-13T01:25:54;20.35;;;14.00;;
81160;SDS011;70637;48.514;14.500;2023-07-13T01:28:20;18.33;;;14.18;;
81160;SDS011;70637;48.514;14.500;2023-07-13T01:30:47;20.67;;;14.23;;
81160;SDS011;70637;48.514;14.500;2023-07-13T01:33:14;18.80;;;15.75;;
81160;SDS011;70637;48.514;14.500;2023-07-13T01:35:43;21.88;;;17.13;;
81160;SDS011;70637;48.514;14.500;2023-07-13T01:38:10;18.33;;;15.80;;
81160;SDS011;70637;48.514;14.500;2023-07-13T01:40:37;19.77;;;16.85;;
81160;SDS011;70637;48.514;14.500;2023-07-13T01:43:03;21.17;;;16.27;;
81160;SDS011;70637;48.514;14.500;2023-07-13T01:45:29;23.38;;;17.10;;
81160;SDS011;70637;48.514;14.500;2023-07-13T01:47:55;23.40;;;17.50;;
81160;SDS011;70637;48.514;14.500;2023-07-13T01:50:23;24.55;;;17.63;;
81160;SDS011;70637;48.514;14.500;2023-07-13T01:52:49;19.55;;;17.27;;
81160;SDS011;70637;48.514;14.500;2023-07-13T01:55:14;19.75;;;15.82;;
81160;SDS011;70637;48.514;14.500;2023-07-13T01:57:40;20.92;;;15.70;;
81160;SDS011;70637;48.514;14.500;2023-07-13T02:00:06;22.70;;;15.90;;
81160;SDS011;70637;48.514;14.500;2023-07-13T02:02:33;17.10;;;13.27;;
81160;SDS011;70637;48.514;14.500;2023-07-13T02:04:59;17.27;;;14.75;;
81160;SDS011;70637;48.514;14.500;2023-07-13T02:07:25;19.52;;;14.73;;
81160;SDS011;70637;48.514;14.500;2023-07-13T02:09:50;15.88;;;14.18;;
81160;SDS011;70637;48.514;14.500;2023-07-13T02:12:16;16.50;;;14.52;;
81160;SDS011;70637;48.514;14.500;2023-07-13T02:14:41;19.33;;;14.32;;
81160;SDS011;70637;48.514;14.500;2023-07-13T02:17:09;21.10;;;14.95;;
81160;SDS011;70637;48.514;14.500;2023-07-13T02:19:35;17.33;;;14.30;;
81160;SDS011;70637;48.514;14.500;2023-07-13T02:22:01;16.65;;;14.57;;
81160;SDS011;70637;48.514;14.500;2023-07-13T02:24:27;18.42;;;14.52;;
81160;SDS011;70637;48.514;14.500;2023-07-13T02:26:53;15.18;;;12.00;;
81160;SDS011;70637;48.514;14.500;2023-07-13T02:29:18;17.20;;;13.00;;
81160;SDS011;70637;48.514;14.500;2023-07-13T02:31:44;19.27;;;15.05;;
81160;SDS011;70637;48.514;14.500;2023-07-13T02:34:11;16.75;;;13.63;;
81160;SDS011;70637;48.514;14.500;2023-07-13T02:36:37;18.83;;;13.82;;
81160;SDS011;70637;48.514;14.500;2023-07-13T02:39:04;17.92;;;13.70;;
81160;SDS011;70637;48.514;14.500;2023-07-13T02:41:30;16.85;;;13.80;;
81160;SDS011;70637;48.514;14.500;2023-07-13T02:43:57;16.85;;;13.02;;
81160;SDS011;70637;48.514;14.500;2023-07-13T02:46:29;18.15;;;12.88;;
81160;SDS011;70637;48.514;14.500;2023-07-13T02:48:58;16.42;;;12.55;;
81160;SDS011;70637;48.514;14.500;2023-07-13T02:51:24;11.90;;;10.43;;
81160;SDS011;70637;48.514;14.500;2023-07-13T02:53:50;13.30;;;10.45;;
81160;SDS011;70637;48.514;14.500;2023-07-13T02:56:17;13.77;;;10.27;;
81160;SDS011;70637;48.514;14.500;2023-07-13T02:58:44;12.52;;;10.35;;
81160;SDS011;70637;48.514;14.500;2023-07-13T03:01:10;15.10;;;9.95;;
81160;SDS011;70637;48.514;14.500;2023-07-13T03:03:37;14.15;;;10.18;;
81160;SDS011;70637;48.514;14.500;2023-07-13T03:06:04;16.60;;;12.10;;
81160;SDS011;70637;48.514;14.500;2023-07-13T03:08:32;18.50;;;14.10;;
81160;SDS011;70637;48.514;14.500;2023-07-13T03:11:05;19.15;;;14.20;;
81160;SDS011;70637;48.514;14.500;2023-07-13T03:13:32;20.15;;;13.00;;
81160;SDS011;70637;48.514;14.500;2023-07-13T03:15:59;16.45;;;12.73;;
81160;SDS011;70637;48.514;14.500;2023-07-13T03:18:26;18.80;;;12.60;;
81160;SDS011;70637;48.514;14.500;2023-07-13T03:20:53;16.42;;;12.25;;
81160;SDS011;70637;48.514;14.500;2023-07-13T03:23:19;19.67;;;14.20;;
81160;SDS011;70637;48.514;14.500;2023-07-13T03:25:45;20.70;;;14.80;;
81160;SDS011;70637;48.514;14.500;2023-07-13T03:28:12;19.90;;;13.70;;
81160;SDS011;70637;48.514;14.500;2023-07-13T03:30:37;20.77;;;15.00;;
81160;SDS011;70637;48.514;14.500;2023-07-13T03:33:03;21.67;;;15.77;;
81160;SDS011;70637;48.514;14.500;2023-07-13T03:35:29;18.25;;;14.73;;
81160;SDS011;70637;48.514;14.500;2023-07-13T03:37:55;18.92;;;14.63;;
81160;SDS011;70637;48.514;14.500;2023-07-13T03:40:21;21.08;;;13.57;;
81160;SDS011;70637;48.514;14.500;2023-07-13T03:42:47;20.15;;;13.60;;
81160;SDS011;70637;48.514;14.500;2023-07-13T03:45:13;16.33;;;12.95;;
81160;SDS011;70637;48.514;14.500;2023-07-13T03:47:38;18.95;;;13.13;;
81160;SDS011;70637;48.514;14.500;2023-07-13T03:50:04;18.35;;;14.30;;
81160;SDS011;70637;48.514;14.500;2023-07-13T03:52:30;18.00;;;14.02;;
81160;SDS011;70637;48.514;14.500;2023-07-13T03:54:56;16.83;;;13.52;;
81160;SDS011;70637;48.514;14.500;2023-07-13T03:57:21;17.80;;;13.85;;
81160;SDS011;70637;48.514;14.500;2023-07-13T03:59:48;15.90;;;12.80;;
81160;SDS011;70637;48.514;14.500;2023-07-13T04:02:13;15.07;;;12.85;;
81160;SDS011;70637;48.514;14.500;2023-07-13T04:04:39;17.98;;;13.55;;
81160;SDS011;70637;48.514;14.500;2023-07-13T04:07:06;15.75;;;12.98;;
81160;SDS011;70637;48.514;14.500;2023-07-13T04:09:33;13.48;;;11.65;;
81160;SDS011;70637;48.514;14.500;2023-07-13T04:11:59;16.38;;;11.90;;
81160;SDS011;70637;48.514;14.500;2023-07-13T04:14:24;12.88;;;11.57;;
81160;SDS011;70637;48.514;14.500;2023-07-13T04:16:50;13.02;;;11.63;;
81160;SDS011;70637;48.514;14.500;2023-07-13T04:19:16;12.35;;;11.02;;
81160;SDS011;70637;48.514;14.500;2023-07-13T04:21:42;13.13;;;10.48;;
81160;SDS011;70637;48.514;14.500;2023-07-13T04:24:07;17.00;;;11.20;;
81160;SDS011;70637;48.514;14.500;2023-07-13T04:26:33;15.23;;;12.07;;
81160;SDS011;70637;48.514;14.500;2023-07-13T04:29:00;12.93;;;11.52;;
81160;SDS011;70637;48.514;14.500;2023-07-13T04:31:28;16.45;;;11.75;;
81160;SDS011;70637;48.514;14.500;2023-07-13T04:33:54;13.45;;;11.60;;
81160;SDS011;70637;48.514;14.500;2023-07-13T04:36:20;14.52;;;11.15;;
81160;SDS011;70637;48.514;14.500;2023-07-13T04:38:45;16.80;;;11.05;;
81160;SDS011;70637;48.514;14.500;2023-07-13T04:41:12;16.17;;;11.50;;
81160;SDS011;70637;48.514;14.500;2023-07-13T04:43:39;14.40;;;11.00;;
81160;SDS011;70637;48.514;14.500;2023-07-13T04:46:08;14.65;;;11.32;;
81160;SDS011;70637;48.514;14.500;2023-07-13T04:48:36;13.50;;;11.33;;
81160;SDS011;70637;48.514;14.500;2023-07-13T04:51:02;13.75;;;11.15;;
81160;SDS011;70637;48.514;14.500;2023-07-13T04:53:29;12.95;;;10.32;;
81160;SDS011;70637;48.514;14.500;2023-07-13T04:55:55;15.15;;;10.80;;
81160;SDS011;70637;48.514;14.500;2023-07-13T04:58:21;11.68;;;10.48;;
81160;SDS011;70637;48.514;14.500;2023-07-13T05:00:47;13.82;;;10.98;;
81160;SDS011;70637;48.514;14.500;2023-07-13T05:03:13;13.70;;;11.07;;
81160;SDS011;70637;48.514;14.500;2023-07-13T05:05:39;15.07;;;11.10;;
81160;SDS011;70637;48.514;14.500;2023-07-13T05:08:04;12.55;;;11.15;;
81160;SDS011;70637;48.514;14.500;2023-07-13T05:10:30;14.32;;;11.18;;
81160;SDS011;70637;48.514;14.500;2023-07-13T05:12:56;13.25;;;11.02;;
81160;SDS011;70637;48.514;14.500;2023-07-13T05:15:22;17.13;;;11.68;;
81160;SDS011;70637;48.514;14.500;2023-07-13T05:17:48;15.65;;;11.20;;
81160;SDS011;70637;48.514;14.500;2023-07-13T05:20:14;15.65;;;12.02;;
81160;SDS011;70637;48.514;14.500;2023-07-13T05:22:41;15.85;;;11.48;;
81160;SDS011;70637;48.514;14.500;2023-07-13T05:25:08;12.93;;;11.60;;
81160;SDS011;70637;48.514;14.500;2023-07-13T05:27:34;18.80;;;11.60;;
81160;SDS011;70637;48.514;14.500;2023-07-13T05:30:00;16.40;;;12.00;;
81160;SDS011;70637;48.514;14.500;2023-07-13T05:32:26;13.25;;;11.38;;
81160;SDS011;70637;48.514;14.500;2023-07-13T05:34:52;15.32;;;11.68;;
81160;SDS011;70637;48.514;14.500;2023-07-13T05:37:18;13.55;;;11.77;;
81160;SDS011;70637;48.514;14.500;2023-07-13T05:39:44;13.07;;;10.75;;
81160;SDS011;70637;48.514;14.500;2023-07-13T05:42:10;14.85;;;12.25;;
81160;SDS011;70637;48.514;14.500;2023-07-13T05:44:35;16.98;;;11.23;;
81160;SDS011;70637;48.514;14.500;2023-07-13T05:47:01;16.10;;;10.23;;
81160;SDS011;70637;48.514;14.500;2023-07-13T05:49:27;14.18;;;10.27;;
81160;SDS011;70637;48.514;14.500;2023-07-13T05:51:52;14.93;;;10.60;;
81160;SDS011;70637;48.514;14.500;2023-07-13T05:54:18;13.63;;;11.05;;
81160;SDS011;70637;48.514;14.500;2023-07-13T05:56:44;15.50;;;10.65;;
81160;SDS011;70637;48.514;14.500;2023-07-13T05:59:09;14.88;;;9.20;;
81160;SDS011;70637;48.514;14.500;2023-07-13T06:01:35;10.60;;;9.50;;
81160;SDS011;70637;48.514;14.500;2023-07-13T06:04:00;9.02;;;6.22;;
81160;SDS011;70637;48.514;14.500;2023-07-13T06:06:26;8.93;;;6.78;;
81160;SDS011;70637;48.514;14.500;2023-07-13T06:08:52;9.18;;;7.32;;
81160;SDS011;70637;48.514;14.500;2023-07-13T06:11:19;6.20;;;4.80;;
81160;SDS011;70637;48.514;14.500;2023-07-13T06:13:46;9.02;;;5.15;;
81160;SDS011;70637;48.514;14.500;2023-07-13T06:16:12;7.82;;;3.47;;
81160;SDS011;70637;48.514;14.500;2023-07-13T06:18:39;5.95;;;3.17;;
81160;SDS011;70637;48.514;14.500;2023-07-13T06:21:09;4.78;;;2.95;;
81160;SDS011;70637;48.514;14.500;2023-07-13T06:23:37;7.10;;;2.97;;
81160;SDS011;70637;48.514;14.500;2023-07-13T06:26:04;8.10;;;3.42;;
81160;SDS011;70637;48.514;14.500;2023-07-13T06:28:30;3.72;;;2.90;;
81160;SDS011;70637;48.514;14.500;2023-07-13T06:30:57;5.45;;;3.03;;
81160;SDS011;70637;48.514;14.500;2023-07-13T06:33:23;4.75;;;2.90;;
81160;SDS011;70637;48.514;14.500;2023-07-13T06:35:49;4.53;;;3.10;;
81160;SDS011;70637;48.514;14.500;2023-07-13T06:38:15;4.75;;;3.10;;
81160;SDS011;70637;48.514;14.500;2023-07-13T06:40:41;4.63;;;2.63;;
81160;SDS011;70637;48.514;14.500;2023-07-13T06:43:06;4.57;;;2.70;;
81160;SDS011;70637;48.514;14.500;2023-07-13T06:45:39;5.05;;;2.50;;
81160;SDS011;70637;48.514;14.500;2023-07-13T06:48:07;3.33;;;2.60;;
81160;SDS011;70637;48.514;14.500;2023-07-13T06:50:33;4.38;;;2.58;;
81160;SDS011;70637;48.514;14.500;2023-07-13T06:52:59;7.18;;;2.53;;
81160;SDS011;70637;48.514;14.500;2023-07-13T06:55:25;9.77;;;2.80;;
81160;SDS011;70637;48.514;14.500;2023-07-13T06:57:51;7.13;;;2.63;;
81160;SDS011;70637;48.514;14.500;2023-07-13T07:00:17;5.22;;;2.78;;
81160;SDS011;70637;48.514;14.500;2023-07-13T07:02:43;4.43;;;2.40;;
81160;SDS011;70637;48.514;14.500;2023-07-13T07:05:08;6.20;;;2.75;;
81160;SDS011;70637;48.514;14.500;2023-07-13T07:07:34;6.22;;;2.67;;
81160;SDS011;70637;48.514;14.500;2023-07-13T07:10:00;4.35;;;2.42;;
81160;SDS011;70637;48.514;14.500;2023-07-13T07:12:25;4.28;;;2.80;;
81160;SDS011;70637;48.514;14.500;2023-07-13T07:14:51;7.10;;;2.95;;
81160;SDS011;70637;48.514;14.500;2023-07-13T07:17:17;6.28;;;3.20;;
81160;SDS011;70637;48.514;14.500;2023-07-13T07:19:42;6.80;;;2.90;;
81160;SDS011;70637;48.514;14.500;2023-07-13T07:22:08;4.68;;;2.80;;
81160;SDS011;70637;48.514;14.500;2023-07-13T07:24:33;4.45;;;2.72;;
81160;SDS011;70637;48.514;14.500;2023-07-13T07:26:59;7.32;;;3.00;;
81160;SDS011;70637;48.514;14.500;2023-07-13T07:29:25;6.78;;;3.40;;
81160;SDS011;70637;48.514;14.500;2023-07-13T07:31:52;6.32;;;2.83;;
81160;SDS011;70637;48.514;14.500;2023-07-13T07:34:18;4.03;;;2.70;;
81160;SDS011;70637;48.514;14.500;2023-07-13T07:36:44;5.15;;;3.03;;
81160;SDS011;70637;48.514;14.500;2023-07-13T07:39:10;5.93;;;2.90;;
81160;SDS011;70637;48.514;14.500;2023-07-13T07:41:36;8.20;;;3.10;;
81160;SDS011;70637;48.514;14.500;2023-07-13T07:44:02;5.35;;;3.13;;
81160;SDS011;70637;48.514;14.500;2023-07-13T07:46:28;4.45;;;2.90;;
81160;SDS011;70637;48.514;14.500;2023-07-13T07:48:55;7.10;;;3.00;;
81160;SDS011;70637;48.514;14.500;2023-07-13T07:51:21;6.55;;;2.90;;
81160;SDS011;70637;48.514;14.500;2023-07-13T07:53:47;5.10;;;2.83;;
81160;SDS011;70637;48.514;14.500;2023-07-13T07:56:13;5.90;;;3.42;;
81160;SDS011;70637;48.514;14.500;2023-07-13T07:58:41;4.75;;;3.13;;
81160;SDS011;70637;48.514;14.500;2023-07-13T08:01:07;4.75;;;2.83;;
81160;SDS011;70637;48.514;14.500;2023-07-13T08:03:33;5.45;;;2.88;;
81160;SDS011;70637;48.514;14.500;2023-07-13T08:05:59;6.28;;;3.17;;
81160;SDS011;70637;48.514;14.500;2023-07-13T08:08:25;8.55;;;3.15;;
81160;SDS011;70637;48.514;14.500;2023-07-13T08:10:51;6.45;;;3.10;;
81160;SDS011;70637;48.514;14.500;2023-07-13T08:13:17;7.43;;;3.20;;
81160;SDS011;70637;48.514;14.500;2023-07-13T08:15:43;6.25;;;3.08;;
81160;SDS011;70637;48.514;14.500;2023-07-13T08:18:08;3.53;;;2.58;;
81160;SDS011;70637;48.514;14.500;2023-07-13T08:20:36;7.78;;;3.38;;
81160;SDS011;70637;48.514;14.500;2023-07-13T08:23:03;5.10;;;3.08;;
81160;SDS011;70637;48.514;14.500;2023-07-13T08:25:29;4.45;;;3.10;;
81160;SDS011;70637;48.514;14.500;2023-07-13T08:27:54;8.75;;;3.30;;
81160;SDS011;70637;48.514;14.500;2023-07-13T08:30:20;5.75;;;2.90;;
81160;SDS011;70637;48.514;14.500;2023-07-13T08:32:46;5.90;;;3.03;;
81160;SDS011;70637;48.514;14.500;2023-07-13T08:35:11;5.07;;;2.95;;
81160;SDS011;70637;48.514;14.500;2023-07-13T08:37:38;6.13;;;2.72;;
81160;SDS011;70637;48.514;14.500;2023-07-13T08:40:04;5.35;;;3.08;;
81160;SDS011;70637;48.514;14.500;2023-07-13T08:42:36;6.40;;;3.30;;
81160;SDS011;70637;48.514;14.500;2023-07-13T08:47:39;5.78;;;3.60;;
81160;SDS011;70637;48.514;14.500;2023-07-13T08:50:14;4.45;;;3.03;;
81160;SDS011;70637;48.514;14.500;2023-07-13T08:52:42;4.15;;;2.83;;
81160;SDS011;70637;48.514;14.500;2023-07-13T08:55:16;4.80;;;3.00;;
81160;SDS011;70637;48.514;14.500;2023-07-13T08:57:48;3.78;;;2.60;;
81160;SDS011;70637;48.514;14.500;2023-07-13T09:00:20;5.55;;;2.75;;
81160;SDS011;70637;48.514;14.500;2023-07-13T09:02:52;4.38;;;3.22;;
81160;SDS011;70637;48.514;14.500;2023-07-13T09:05:33;6.20;;;2.92;;
81160;SDS011;70637;48.514;14.500;2023-07-13T09:10:52;5.47;;;3.10;;
81160;SDS011;70637;48.514;14.500;2023-07-13T09:16:22;5.55;;;3.17;;
81160;SDS011;70637;48.514;14.500;2023-07-13T09:18:50;5.35;;;3.15;;
81160;SDS011;70637;48.514;14.500;2023-07-13T09:21:27;4.07;;;3.03;;
81160;SDS011;70637;48.514;14.500;2023-07-13T09:23:59;3.47;;;3.13;;
81160;SDS011;70637;48.514;14.500;2023-07-13T09:26:42;8.48;;;3.33;;
81160;SDS011;70637;48.514;14.500;2023-07-13T09:29:13;7.05;;;3.50;;
81160;SDS011;70637;48.514;14.500;2023-07-13T09:31:45;8.43;;;3.42;;
81160;SDS011;70637;48.514;14.500;2023-07-13T09:34:17;6.82;;;3.30;;
81160;SDS011;70637;48.514;14.500;2023-07-13T09:36:42;6.60;;;3.38;;
81160;SDS011;70637;48.514;14.500;2023-07-13T09:39:14;4.80;;;3.10;;
81160;SDS011;70637;48.514;14.500;2023-07-13T09:42:13;8.32;;;3.28;;
81160;SDS011;70637;48.514;14.500;2023-07-13T09:44:59;4.25;;;3.30;;
81160;SDS011;70637;48.514;14.500;2023-07-13T09:47:28;4.55;;;3.35;;
81160;SDS011;70637;48.514;14.500;2023-07-13T09:49:56;7.78;;;2.97;;
81160;SDS011;70637;48.514;14.500;2023-07-13T09:52:27;4.25;;;3.08;;
81160;SDS011;70637;48.514;14.500;2023-07-13T09:54:54;7.22;;;3.38;;
81160;SDS011;70637;48.514;14.500;2023-07-13T09:57:26;4.88;;;3.58;;
81160;SDS011;70637;48.514;14.500;2023-07-13T09:59:53;7.03;;;3.85;;
81160;SDS011;70637;48.514;14.500;2023-07-13T10:02:32;4.78;;;3.60;;
81160;SDS011;70637;48.514;14.500;2023-07-13T10:05:00;6.55;;;3.38;;
81160;SDS011;70637;48.514;14.500;2023-07-13T10:07:30;5.93;;;3.85;;
81160;SDS011;70637;48.514;14.500;2023-07-13T10:09:57;6.88;;;3.75;;
81160;SDS011;70637;48.514;14.500;2023-07-13T10:12:26;3.97;;;3.40;;
81160;SDS011;70637;48.514;14.500;2023-07-13T10:14:54;4.10;;;3.35;;
81160;SDS011;70637;48.514;14.500;2023-07-13T10:17:25;4.38;;;2.92;;
81160;SDS011;70637;48.514;14.500;2023-07-13T10:20:05;8.32;;;3.35;;
81160;SDS011;70637;48.514;14.500;2023-07-13T10:22:39;5.67;;;2.90;;
81160;SDS011;70637;48.514;14.500;2023-07-13T10:25:22;7.35;;;3.33;;
81160;SDS011;70637;48.514;14.500;2023-07-13T10:27:51;3.53;;;2.80;;
81160;SDS011;70637;48.514;14.500;2023-07-13T10:30:20;5.63;;;3.00;;
81160;SDS011;70637;48.514;14.500;2023-07-13T10:32:53;4.90;;;2.67;;
81160;SDS011;70637;48.514;14.500;2023-07-13T10:35:19;6.45;;;3.08;;
81160;SDS011;70637;48.514;14.500;2023-07-13T10:40:27;6.57;;;3.05;;
81160;SDS011;70637;48.514;14.500;2023-07-13T10:42:59;6.28;;;2.72;;
81160;SDS011;70637;48.514;14.500;2023-07-13T10:45:30;3.60;;;2.65;;
81160;SDS011;70637;48.514;14.500;2023-07-13T10:47:58;4.75;;;2.70;;
81160;SDS011;70637;48.514;14.500;2023-07-13T10:50:25;4.75;;;2.53;;
81160;SDS011;70637;48.514;14.500;2023-07-13T10:52:54;3.65;;;2.30;;
81160;SDS011;70637;48.514;14.500;2023-07-13T10:55:38;4.95;;;2.40;;
81160;SDS011;70637;48.514;14.500;2023-07-13T10:58:21;5.90;;;2.53;;
81160;SDS011;70637;48.514;14.500;2023-07-13T11:01:16;5.25;;;2.55;;
81160;SDS011;70637;48.514;14.500;2023-07-13T11:18:53;8.77;;;2.80;;
81160;SDS011;70637;48.514;14.500;2023-07-13T11:27:52;4.93;;;2.47;;
81160;SDS011;70637;48.514;14.500;2023-07-13T11:30:36;4.05;;;2.40;;
81160;SDS011;70637;48.514;14.500;2023-07-13T11:35:43;7.07;;;2.28;;
81160;SDS011;70637;48.514;14.500;2023-07-13T11:38:19;7.35;;;2.30;;
81160;SDS011;70637;48.514;14.500;2023-07-13T11:40:48;4.38;;;2.20;;
81160;SDS011;70637;48.514;14.500;2023-07-13T11:43:15;2.92;;;1.73;;
81160;SDS011;70637;48.514;14.500;2023-07-13T11:45:42;6.03;;;1.90;;
81160;SDS011;70637;48.514;14.500;2023-07-13T11:51:04;8.95;;;2.05;;
81160;SDS011;70637;48.514;14.500;2023-07-13T11:53:40;6.53;;;1.77;;
81160;SDS011;70637;48.514;14.500;2023-07-13T11:56:10;4.57;;;1.73;;
81160;SDS011;70637;48.514;14.500;2023-07-13T11:58:36;7.28;;;1.85;;
81160;SDS011;70637;48.514;14.500;2023-07-13T12:01:01;5.32;;;1.80;;
81160;SDS011;70637;48.514;14.500;2023-07-13T12:03:29;3.80;;;1.80;;
81160;SDS011;70637;48.514;14.500;2023-07-13T12:05:57;4.78;;;1.90;;
81160;SDS011;70637;48.514;14.500;2023-07-13T12:08:28;5.90;;;1.83;;
81160;SDS011;70637;48.514;14.500;2023-07-13T12:10:58;3.50;;;1.70;;
81160;SDS011;70637;48.514;14.500;2023-07-13T12:13:26;4.20;;;1.80;;
81160;SDS011;70637;48.514;14.500;2023-07-13T12:15:54;4.90;;;1.65;;
81160;SDS011;70637;48.514;14.500;2023-07-13T12:18:22;3.47;;;1.70;;
81160;SDS011;70637;48.514;14.500;2023-07-13T12:20:55;6.38;;;2.10;;
81160;SDS011;70637;48.514;14.500;2023-07-13T12:23:32;2.80;;;1.67;;
81160;SDS011;70637;48.514;14.500;2023-07-13T12:26:05;2.83;;;1.60;;
81160;SDS011;70637;48.514;14.500;2023-07-13T12:31:03;2.28;;;1.52;;
81160;SDS011;70637;48.514;14.500;2023-07-13T12:33:31;4.95;;;2.00;;
81160;SDS011;70637;48.514;14.500;2023-07-13T12:36:02;4.13;;;2.05;;
81160;SDS011;70637;48.514;14.500;2023-07-13T12:38:31;6.38;;;2.08;;
81160;SDS011;70637;48.514;14.500;2023-07-13T12:40:57;6.38;;;1.92;;
81160;SDS011;70637;48.514;14.500;2023-07-13T12:43:23;2.33;;;1.75;;
81160;SDS011;70637;48.514;14.500;2023-07-13T12:46:03;6.50;;;1.85;;
81160;SDS011;70637;48.514;14.500;2023-07-13T12:48:41;3.80;;;2.10;;
81160;SDS011;70637;48.514;14.500;2023-07-13T12:51:10;4.25;;;1.75;;
81160;SDS011;70637;48.514;14.500;2023-07-13T12:53:50;5.43;;;1.77;;
81160;SDS011;70637;48.514;14.500;2023-07-13T12:56:23;2.88;;;1.60;;
81160;SDS011;70637;48.514;14.500;2023-07-13T12:58:56;3.80;;;1.77;;
81160;SDS011;70637;48.514;14.500;2023-07-13T13:01:25;4.05;;;1.80;;
81160;SDS011;70637;48.514;14.500;2023-07-13T13:03:53;4.93;;;1.73;;
81160;SDS011;70637;48.514;14.500;2023-07-13T13:06:24;2.75;;;1.70;;
81160;SDS011;70637;48.514;14.500;2023-07-13T13:08:53;4.63;;;1.75;;
81160;SDS011;70637;48.514;14.500;2023-07-13T13:11:21;4.30;;;2.10;;
81160;SDS011;70637;48.514;14.500;2023-07-13T13:13:48;4.13;;;1.70;;
81160;SDS011;70637;48.514;14.500;2023-07-13T13:18:44;5.50;;;1.73;;
81160;SDS011;70637;48.514;14.500;2023-07-13T13:21:10;6.82;;;1.75;;
81160;SDS011;70637;48.514;14.500;2023-07-13T13:23:36;5.43;;;2.00;;
81160;SDS011;70637;48.514;14.500;2023-07-13T13:26:02;3.47;;;1.73;;
81160;SDS011;70637;48.514;14.500;2023-07-13T13:28:31;26.83;;;2.92;;
81160;SDS011;70637;48.514;14.500;2023-07-13T13:30:57;7.88;;;2.13;;
81160;SDS011;70637;48.514;14.500;2023-07-13T13:33:23;4.95;;;2.63;;
81160;SDS011;70637;48.514;14.500;2023-07-13T13:35:49;5.25;;;2.20;;
81160;SDS011;70637;48.514;14.500;2023-07-13T13:38:15;7.65;;;2.28;;
81160;SDS011;70637;48.514;14.500;2023-07-13T13:40:44;6.32;;;2.28;;
81160;SDS011;70637;48.514;14.500;2023-07-13T13:43:17;3.78;;;1.83;;
81160;SDS011;70637;48.514;14.500;2023-07-13T13:45:43;5.63;;;1.92;;
81160;SDS011;70637;48.514;14.500;2023-07-13T13:48:14;7.03;;;2.10;;
81160;SDS011;70637;48.514;14.500;2023-07-13T13:50:42;5.20;;;2.03;;
81160;SDS011;70637;48.514;14.500;2023-07-13T13:53:12;5.97;;;2.20;;
81160;SDS011;70637;48.514;14.500;2023-07-13T13:55:41;7.10;;;1.92;;
81160;SDS011;70637;48.514;14.500;2023-07-13T13:58:08;6.95;;;2.05;;
81160;SDS011;70637;48.514;14.500;2023-07-13T14:00:35;5.30;;;1.80;;
81160;SDS011;70637;48.514;14.500;2023-07-13T14:03:01;3.33;;;1.50;;
81160;SDS011;70637;48.514;14.500;2023-07-13T14:05:27;5.30;;;1.75;;
81160;SDS011;70637;48.514;14.500;2023-07-13T14:07:54;6.18;;;1.60;;
81160;SDS011;70637;48.514;14.500;2023-07-13T14:10:21;3.80;;;1.90;;
81160;SDS011;70637;48.514;14.500;2023-07-13T14:12:51;3.47;;;1.70;;
81160;SDS011;70637;48.514;14.500;2023-07-13T14:15:23;2.50;;;1.58;;
81160;SDS011;70637;48.514;14.500;2023-07-13T14:17:51;5.13;;;1.60;;
81160;SDS011;70637;48.514;14.500;2023-07-13T14:20:20;3.85;;;1.63;;
81160;SDS011;70637;48.514;14.500;2023-07-13T14:25:15;5.38;;;1.70;;
81160;SDS011;70637;48.514;14.500;2023-07-13T14:27:42;4.80;;;1.70;;
81160;SDS011;70637;48.514;14.500;2023-07-13T14:30:12;6.20;;;1.90;;
81160;SDS011;70637;48.514;14.500;2023-07-13T14:32:42;3.30;;;1.70;;
81160;SDS011;70637;48.514;14.500;2023-07-13T14:35:13;3.97;;;1.73;;
81160;SDS011;70637;48.514;14.500;2023-07-13T14:37:39;6.03;;;1.90;;
81160;SDS011;70637;48.514;14.500;2023-07-13T14:40:25;2.95;;;1.80;;
81160;SDS011;70637;48.514;14.500;2023-07-13T14:42:53;3.38;;;1.60;;
81160;SDS011;70637;48.514;14.500;2023-07-13T14:45:19;5.10;;;1.80;;
81160;SDS011;70637;48.514;14.500;2023-07-13T14:47:45;5.13;;;1.90;;
81160;SDS011;70637;48.514;14.500;2023-07-13T14:50:16;3.65;;;1.90;;
81160;SDS011;70637;48.514;14.500;2023-07-13T14:52:44;6.03;;;2.00;;
81160;SDS011;70637;48.514;14.500;2023-07-13T14:55:14;2.35;;;1.50;;
81160;SDS011;70637;48.514;14.500;2023-07-13T14:57:41;3.67;;;1.70;;
81160;SDS011;70637;48.514;14.500;2023-07-13T15:00:17;3.78;;;1.88;;
81160;SDS011;70637;48.514;14.500;2023-07-13T15:02:47;3.30;;;1.70;;
81160;SDS011;70637;48.514;14.500;2023-07-13T15:05:16;4.85;;;1.80;;
81160;SDS011;70637;48.514;14.500;2023-07-13T15:07:44;5.28;;;1.98;;
81160;SDS011;70637;48.514;14.500;2023-07-13T15:10:17;3.80;;;1.85;;
81160;SDS011;70637;48.514;14.500;2023-07-13T15:12:44;2.90;;;1.67;;
81160;SDS011;70637;48.514;14.500;2023-07-13T15:15:10;2.40;;;1.60;;
81160;SDS011;70637;48.514;14.500;2023-07-13T15:22:57;3.17;;;1.80;;
81160;SDS011;70637;48.514;14.500;2023-07-13T15:25:24;11.88;;;2.15;;